createdAt,value
2018-05-09T21:01:33.618Z,18.40
2018-05-09T21:04:01.188Z,17.90
2018-05-09T21:06:28.743Z,17.80
2018-05-09T21:08:57.090Z,17.50
2018-05-09T21:11:24.651Z,17.40
2018-05-09T21:13:52.227Z,17.40
2018-05-09T21:16:19.773Z,17.20
2018-05-09T21:18:47.326Z,17.20
2018-05-09T21:21:14.906Z,17.20
2018-05-09T21:23:42.449Z,17.30
2018-05-09T21:26:10.034Z,17.20
2018-05-09T21:28:37.576Z,17.10
2018-05-09T21:31:05.142Z,17.00
2018-05-09T21:33:32.696Z,17.00
2018-05-09T21:36:00.270Z,16.80
2018-05-09T21:38:28.017Z,16.70
2018-05-09T21:40:55.697Z,16.70
2018-05-09T21:43:23.169Z,16.60
2018-05-09T21:45:50.741Z,16.60
2018-05-09T21:48:18.293Z,16.50
2018-05-09T21:50:45.860Z,16.50
2018-05-09T21:53:13.418Z,16.40
2018-05-09T21:55:40.988Z,16.30
2018-05-09T21:58:08.534Z,16.30
2018-05-09T22:00:36.114Z,16.20
2018-05-09T22:03:03.665Z,16.30
2018-05-09T22:05:31.236Z,16.20
2018-05-09T22:07:59.552Z,16.20
2018-05-09T22:10:27.117Z,16.10
2018-05-09T22:12:54.809Z,15.90
2018-05-09T22:15:22.386Z,16.00
2018-05-09T22:17:49.941Z,16.00
2018-05-09T22:20:17.508Z,15.90
2018-05-09T22:22:45.842Z,15.80
2018-05-09T22:25:13.411Z,15.80
2018-05-09T22:27:40.966Z,15.80
2018-05-09T22:30:08.537Z,15.70
2018-05-09T22:32:36.104Z,15.60
2018-05-09T22:35:03.726Z,15.60
2018-05-09T22:37:31.373Z,15.60
2018-05-09T22:39:58.856Z,15.60
2018-05-09T22:42:26.436Z,15.80
2018-05-09T22:44:53.993Z,15.90
2018-05-09T22:47:21.566Z,15.50
2018-05-09T22:49:49.117Z,15.40
2018-05-09T22:52:17.457Z,15.30
2018-05-09T22:54:45.015Z,15.30
2018-05-09T22:57:12.592Z,15.30
2018-05-09T22:59:40.137Z,15.40
2018-05-09T23:02:07.714Z,15.40
2018-05-09T23:04:35.267Z,15.30
2018-05-09T23:07:02.840Z,15.20
2018-05-09T23:09:30.397Z,15.10
2018-05-09T23:11:57.974Z,15.20
2018-05-09T23:14:25.530Z,15.40
2018-05-09T23:16:54.049Z,15.20
2018-05-09T23:19:21.590Z,15.10
2018-05-09T23:21:49.164Z,15.20
2018-05-09T23:24:16.709Z,15.10
2018-05-09T23:26:44.273Z,14.80
2018-05-09T23:29:11.826Z,14.90
2018-05-09T23:31:39.402Z,14.90
2018-05-09T23:34:06.944Z,14.90
2018-05-09T23:36:34.515Z,14.90
2018-05-09T23:39:02.070Z,14.80
2018-05-09T23:41:29.658Z,14.80
2018-05-09T23:43:57.214Z,14.80
2018-05-09T23:46:24.767Z,14.60
2018-05-09T23:48:52.346Z,14.70
2018-05-09T23:51:19.896Z,14.70
2018-05-09T23:53:47.474Z,14.70
2018-05-09T23:56:15.034Z,14.80
2018-05-09T23:58:42.603Z,14.80
